sensor_id;sensor_type;location;lat;lon;timestamp;P1;durP1;ratioP1;P2;durP2;ratioP2
18336;SDS011;9294;51.106;7.028;2023-02-28T00:00:07;1.92;;;1.83;;
18336;SDS011;9294;51.106;7.028;2023-02-28T00:02:36;1.70;;;1.60;;
18336;SDS011;9294;51.106;7.028;2023-02-28T00:05:04;1.67;;;1.67;;
18336;SDS011;9294;51.106;7.028;2023-02-28T00:07:31;1.55;;;1.55;;
18336;SDS011;9294;51.106;7.028;2023-02-28T00:09:58;1.70;;;1.60;;
18336;SDS011;9294;51.106;7.028;2023-02-28T00:12:25;2.03;;;1.88;;
18336;SDS011;9294;51.106;7.028;2023-02-28T00:14:52;1.80;;;1.73;;
18336;SDS011;9294;51.106;7.028;2023-02-28T00:17:20;1.50;;;1.42;;
18336;SDS011;9294;51.106;7.028;2023-02-28T00:19:47;1.58;;;1.58;;
18336;SDS011;9294;51.106;7.028;2023-02-28T00:22:14;1.83;;;1.73;;
18336;SDS011;9294;51.106;7.028;2023-02-28T00:24:41;1.77;;;1.67;;
18336;SDS011;9294;51.106;7.028;2023-02-28T00:27:07;1.20;;;1.20;;
18336;SDS011;9294;51.106;7.028;2023-02-28T00:29:34;1.27;;;1.27;;
18336;SDS011;9294;51.106;7.028;2023-02-28T00:32:01;1.45;;;1.40;;
18336;SDS011;9294;51.106;7.028;2023-02-28T00:34:29;1.40;;;1.40;;
18336;SDS011;9294;51.106;7.028;2023-02-28T00:36:56;1.50;;;1.50;;
18336;SDS011;9294;51.106;7.028;2023-02-28T00:39:22;1.30;;;1.30;;
18336;SDS011;9294;51.106;7.028;2023-02-28T00:41:50;1.52;;;1.42;;
18336;SDS011;9294;51.106;7.028;2023-02-28T00:44:16;1.75;;;1.67;;
18336;SDS011;9294;51.106;7.028;2023-02-28T00:46:46;1.70;;;1.70;;
18336;SDS011;9294;51.106;7.028;2023-02-28T00:49:13;1.35;;;1.35;;
18336;SDS011;9294;51.106;7.028;2023-02-28T00:51:41;1.25;;;1.25;;
18336;SDS011;9294;51.106;7.028;2023-02-28T00:54:07;1.48;;;1.48;;
18336;SDS011;9294;51.106;7.028;2023-02-28T00:56:34;1.25;;;1.25;;
18336;SDS011;9294;51.106;7.028;2023-02-28T00:59:01;1.42;;;1.42;;
18336;SDS011;9294;51.106;7.028;2023-02-28T01:01:27;1.80;;;1.70;;
18336;SDS011;9294;51.106;7.028;2023-02-28T01:03:54;1.60;;;1.60;;
18336;SDS011;9294;51.106;7.028;2023-02-28T01:06:21;1.33;;;1.33;;
18336;SDS011;9294;51.106;7.028;2023-02-28T01:08:49;1.70;;;1.45;;
18336;SDS011;9294;51.106;7.028;2023-02-28T01:11:17;1.58;;;1.50;;
18336;SDS011;9294;51.106;7.028;2023-02-28T01:13:45;1.35;;;1.35;;
18336;SDS011;9294;51.106;7.028;2023-02-28T01:16:12;1.50;;;1.50;;
18336;SDS011;9294;51.106;7.028;2023-02-28T01:18:39;1.48;;;1.48;;
18336;SDS011;9294;51.106;7.028;2023-02-28T01:21:06;1.40;;;1.40;;
18336;SDS011;9294;51.106;7.028;2023-02-28T01:23:34;1.20;;;1.20;;
18336;SDS011;9294;51.106;7.028;2023-02-28T01:26:04;1.50;;;1.40;;
18336;SDS011;9294;51.106;7.028;2023-02-28T01:28:32;1.30;;;1.30;;
18336;SDS011;9294;51.106;7.028;2023-02-28T01:30:59;1.55;;;1.55;;
18336;SDS011;9294;51.106;7.028;2023-02-28T01:33:27;1.45;;;1.35;;
18336;SDS011;9294;51.106;7.028;2023-02-28T01:35:57;1.30;;;1.30;;
18336;SDS011;9294;51.106;7.028;2023-02-28T01:38:24;1.50;;;1.50;;
18336;SDS011;9294;51.106;7.028;2023-02-28T01:40:51;1.50;;;1.50;;
18336;SDS011;9294;51.106;7.028;2023-02-28T01:43:23;1.50;;;1.50;;
18336;SDS011;9294;51.106;7.028;2023-02-28T01:45:52;1.98;;;1.80;;
18336;SDS011;9294;51.106;7.028;2023-02-28T01:48:21;1.50;;;1.40;;
18336;SDS011;9294;51.106;7.028;2023-02-28T01:50:51;1.30;;;1.30;;
18336;SDS011;9294;51.106;7.028;2023-02-28T01:53:21;1.40;;;1.40;;
18336;SDS011;9294;51.106;7.028;2023-02-28T01:55:54;1.30;;;1.30;;
18336;SDS011;9294;51.106;7.028;2023-02-28T01:58:22;1.50;;;1.40;;
18336;SDS011;9294;51.106;7.028;2023-02-28T02:00:49;1.40;;;1.30;;
18336;SDS011;9294;51.106;7.028;2023-02-28T02:03:17;1.20;;;1.20;;
18336;SDS011;9294;51.106;7.028;2023-02-28T02:05:46;1.50;;;1.50;;
18336;SDS011;9294;51.106;7.028;2023-02-28T02:08:13;1.38;;;1.38;;
18336;SDS011;9294;51.106;7.028;2023-02-28T02:10:44;1.30;;;1.20;;
18336;SDS011;9294;51.106;7.028;2023-02-28T02:13:21;1.17;;;1.17;;
18336;SDS011;9294;51.106;7.028;2023-02-28T02:16:03;1.48;;;1.45;;
18336;SDS011;9294;51.106;7.028;2023-02-28T02:18:37;1.30;;;1.30;;
18336;SDS011;9294;51.106;7.028;2023-02-28T02:24:03;1.27;;;1.25;;
18336;SDS011;9294;51.106;7.028;2023-02-28T02:27:09;1.40;;;1.35;;
18336;SDS011;9294;51.106;7.028;2023-02-28T02:29:54;1.80;;;1.20;;
18336;SDS011;9294;51.106;7.028;2023-02-28T02:32:57;1.50;;;1.50;;
18336;SDS011;9294;51.106;7.028;2023-02-28T02:35:53;1.27;;;1.17;;
18336;SDS011;9294;51.106;7.028;2023-02-28T02:38:26;1.10;;;1.10;;
18336;SDS011;9294;51.106;7.028;2023-02-28T02:41:01;1.23;;;1.23;;
18336;SDS011;9294;51.106;7.028;2023-02-28T02:43:34;1.10;;;1.10;;
18336;SDS011;9294;51.106;7.028;2023-02-28T02:46:08;1.30;;;1.10;;
18336;SDS011;9294;51.106;7.028;2023-02-28T02:48:40;1.33;;;1.33;;
18336;SDS011;9294;51.106;7.028;2023-02-28T02:51:13;1.48;;;1.38;;
18336;SDS011;9294;51.106;7.028;2023-02-28T02:53:42;1.48;;;1.48;;
18336;SDS011;9294;51.106;7.028;2023-02-28T02:56:15;1.45;;;1.45;;
18336;SDS011;9294;51.106;7.028;2023-02-28T02:58:45;1.23;;;1.13;;
18336;SDS011;9294;51.106;7.028;2023-02-28T03:01:16;1.33;;;1.33;;
18336;SDS011;9294;51.106;7.028;2023-02-28T03:03:52;1.20;;;1.20;;
18336;SDS011;9294;51.106;7.028;2023-02-28T03:06:23;1.33;;;1.33;;
18336;SDS011;9294;51.106;7.028;2023-02-28T03:08:50;1.52;;;1.48;;
18336;SDS011;9294;51.106;7.028;2023-02-28T03:11:17;1.10;;;1.10;;
18336;SDS011;9294;51.106;7.028;2023-02-28T03:13:52;1.33;;;1.33;;
18336;SDS011;9294;51.106;7.028;2023-02-28T03:16:43;1.33;;;1.25;;
18336;SDS011;9294;51.106;7.028;2023-02-28T03:19:46;1.15;;;1.15;;
18336;SDS011;9294;51.106;7.028;2023-02-28T03:22:30;1.08;;;1.08;;
18336;SDS011;9294;51.106;7.028;2023-02-28T03:25:07;1.17;;;1.17;;
18336;SDS011;9294;51.106;7.028;2023-02-28T03:27:39;1.30;;;1.30;;
18336;SDS011;9294;51.106;7.028;2023-02-28T03:30:14;1.40;;;1.30;;
18336;SDS011;9294;51.106;7.028;2023-02-28T03:32:45;1.08;;;1.08;;
18336;SDS011;9294;51.106;7.028;2023-02-28T03:35:22;1.10;;;1.10;;
18336;SDS011;9294;51.106;7.028;2023-02-28T03:37:53;1.10;;;1.10;;
18336;SDS011;9294;51.106;7.028;2023-02-28T03:40:25;0.95;;;0.95;;
18336;SDS011;9294;51.106;7.028;2023-02-28T03:42:57;1.30;;;1.30;;
18336;SDS011;9294;51.106;7.028;2023-02-28T03:45:28;1.40;;;1.40;;
18336;SDS011;9294;51.106;7.028;2023-02-28T03:47:57;1.00;;;1.00;;
18336;SDS011;9294;51.106;7.028;2023-02-28T03:50:27;1.45;;;1.35;;
18336;SDS011;9294;51.106;7.028;2023-02-28T03:53:02;1.02;;;1.02;;
18336;SDS011;9294;51.106;7.028;2023-02-28T03:55:37;2.28;;;1.23;;
18336;SDS011;9294;51.106;7.028;2023-02-28T03:58:11;1.50;;;1.40;;
18336;SDS011;9294;51.106;7.028;2023-02-28T04:00:45;1.17;;;1.17;;
18336;SDS011;9294;51.106;7.028;2023-02-28T04:03:15;1.13;;;1.13;;
18336;SDS011;9294;51.106;7.028;2023-02-28T04:05:46;1.38;;;1.27;;
18336;SDS011;9294;51.106;7.028;2023-02-28T04:08:18;1.45;;;1.45;;
18336;SDS011;9294;51.106;7.028;2023-02-28T04:10:47;1.10;;;1.10;;
18336;SDS011;9294;51.106;7.028;2023-02-28T04:13:17;1.10;;;1.10;;
18336;SDS011;9294;51.106;7.028;2023-02-28T04:15:44;1.02;;;1.02;;
18336;SDS011;9294;51.106;7.028;2023-02-28T04:18:10;1.20;;;1.20;;
18336;SDS011;9294;51.106;7.028;2023-02-28T04:20:37;1.58;;;1.58;;
18336;SDS011;9294;51.106;7.028;2023-02-28T04:23:04;1.20;;;1.20;;
18336;SDS011;9294;51.106;7.028;2023-02-28T04:25:32;1.00;;;1.00;;
18336;SDS011;9294;51.106;7.028;2023-02-28T04:27:58;1.10;;;1.10;;
18336;SDS011;9294;51.106;7.028;2023-02-28T04:30:25;1.58;;;1.48;;
18336;SDS011;9294;51.106;7.028;2023-02-28T04:32:52;1.30;;;1.30;;
18336;SDS011;9294;51.106;7.028;2023-02-28T04:35:18;1.20;;;1.20;;
18336;SDS011;9294;51.106;7.028;2023-02-28T04:37:45;1.27;;;1.27;;
18336;SDS011;9294;51.106;7.028;2023-02-28T04:40:12;1.20;;;1.20;;
18336;SDS011;9294;51.106;7.028;2023-02-28T04:42:40;1.17;;;1.17;;
18336;SDS011;9294;51.106;7.028;2023-02-28T04:45:07;1.20;;;1.20;;
18336;SDS011;9294;51.106;7.028;2023-02-28T04:47:35;1.27;;;1.27;;
18336;SDS011;9294;51.106;7.028;2023-02-28T04:50:02;1.30;;;1.30;;
18336;SDS011;9294;51.106;7.028;2023-02-28T04:52:29;1.30;;;1.20;;
18336;SDS011;9294;51.106;7.028;2023-02-28T04:54:56;1.10;;;1.10;;
18336;SDS011;9294;51.106;7.028;2023-02-28T04:57:23;1.10;;;1.10;;
18336;SDS011;9294;51.106;7.028;2023-02-28T04:59:51;1.10;;;1.10;;
18336;SDS011;9294;51.106;7.028;2023-02-28T05:02:18;1.20;;;1.20;;
18336;SDS011;9294;51.106;7.028;2023-02-28T05:04:46;1.35;;;1.35;;
18336;SDS011;9294;51.106;7.028;2023-02-28T05:07:12;0.90;;;0.90;;
18336;SDS011;9294;51.106;7.028;2023-02-28T05:09:39;1.20;;;1.20;;
18336;SDS011;9294;51.106;7.028;2023-02-28T05:12:06;1.15;;;1.15;;
18336;SDS011;9294;51.106;7.028;2023-02-28T05:14:34;1.00;;;1.00;;
18336;SDS011;9294;51.106;7.028;2023-02-28T05:17:02;1.20;;;1.20;;
18336;SDS011;9294;51.106;7.028;2023-02-28T05:19:29;1.27;;;1.27;;
18336;SDS011;9294;51.106;7.028;2023-02-28T05:21:56;1.20;;;1.20;;
18336;SDS011;9294;51.106;7.028;2023-02-28T05:24:23;0.90;;;0.90;;
18336;SDS011;9294;51.106;7.028;2023-02-28T05:26:50;1.00;;;1.00;;
18336;SDS011;9294;51.106;7.028;2023-02-28T05:29:18;0.95;;;0.95;;
18336;SDS011;9294;51.106;7.028;2023-02-28T05:31:45;0.82;;;0.82;;
18336;SDS011;9294;51.106;7.028;2023-02-28T05:34:13;0.93;;;0.93;;
18336;SDS011;9294;51.106;7.028;2023-02-28T05:36:41;1.00;;;1.00;;
18336;SDS011;9294;51.106;7.028;2023-02-28T05:39:08;1.00;;;1.00;;
18336;SDS011;9294;51.106;7.028;2023-02-28T05:41:37;1.00;;;1.00;;
18336;SDS011;9294;51.106;7.028;2023-02-28T05:44:08;1.20;;;1.20;;
18336;SDS011;9294;51.106;7.028;2023-02-28T05:46:35;0.90;;;0.90;;
18336;SDS011;9294;51.106;7.028;2023-02-28T05:49:02;1.05;;;1.05;;
18336;SDS011;9294;51.106;7.028;2023-02-28T05:51:30;0.80;;;0.80;;
18336;SDS011;9294;51.106;7.028;2023-02-28T05:53:59;0.90;;;0.90;;
18336;SDS011;9294;51.106;7.028;2023-02-28T05:56:27;0.80;;;0.80;;
18336;SDS011;9294;51.106;7.028;2023-02-28T05:58:54;1.30;;;1.30;;
18336;SDS011;9294;51.106;7.028;2023-02-28T06:01:22;1.00;;;1.00;;
18336;SDS011;9294;51.106;7.028;2023-02-28T06:03:50;0.90;;;0.90;;
18336;SDS011;9294;51.106;7.028;2023-02-28T06:06:17;1.00;;;1.00;;
18336;SDS011;9294;51.106;7.028;2023-02-28T06:08:45;0.95;;;0.95;;
18336;SDS011;9294;51.106;7.028;2023-02-28T06:11:12;0.98;;;0.98;;
18336;SDS011;9294;51.106;7.028;2023-02-28T06:13:39;1.08;;;1.08;;
18336;SDS011;9294;51.106;7.028;2023-02-28T06:16:06;1.00;;;1.00;;
18336;SDS011;9294;51.106;7.028;2023-02-28T06:18:34;0.75;;;0.75;;
18336;SDS011;9294;51.106;7.028;2023-02-28T06:21:00;0.90;;;0.90;;
18336;SDS011;9294;51.106;7.028;2023-02-28T06:23:27;1.15;;;1.15;;
18336;SDS011;9294;51.106;7.028;2023-02-28T06:25:55;1.30;;;1.30;;
18336;SDS011;9294;51.106;7.028;2023-02-28T06:28:23;4.65;;;1.08;;
18336;SDS011;9294;51.106;7.028;2023-02-28T06:30:51;1.23;;;1.17;;
18336;SDS011;9294;51.106;7.028;2023-02-28T06:33:18;1.27;;;1.20;;
18336;SDS011;9294;51.106;7.028;2023-02-28T06:35:46;1.00;;;1.00;;
18336;SDS011;9294;51.106;7.028;2023-02-28T06:38:13;3.15;;;1.30;;
18336;SDS011;9294;51.106;7.028;2023-02-28T06:40:39;8.75;;;1.33;;
18336;SDS011;9294;51.106;7.028;2023-02-28T06:43:07;1.38;;;1.30;;
18336;SDS011;9294;51.106;7.028;2023-02-28T06:45:40;1.55;;;1.30;;
18336;SDS011;9294;51.106;7.028;2023-02-28T06:48:08;4.70;;;1.30;;
18336;SDS011;9294;51.106;7.028;2023-02-28T06:50:35;2.15;;;1.05;;
18336;SDS011;9294;51.106;7.028;2023-02-28T06:53:02;4.25;;;1.10;;
18336;SDS011;9294;51.106;7.028;2023-02-28T06:55:28;4.13;;;1.38;;
18336;SDS011;9294;51.106;7.028;2023-02-28T06:57:55;1.15;;;1.05;;
18336;SDS011;9294;51.106;7.028;2023-02-28T07:00:24;1.15;;;1.10;;
18336;SDS011;9294;51.106;7.028;2023-02-28T07:02:51;5.30;;;1.48;;
18336;SDS011;9294;51.106;7.028;2023-02-28T07:05:18;3.88;;;1.17;;
18336;SDS011;9294;51.106;7.028;2023-02-28T07:07:45;0.93;;;0.93;;
18336;SDS011;9294;51.106;7.028;2023-02-28T07:10:12;1.90;;;1.20;;
18336;SDS011;9294;51.106;7.028;2023-02-28T07:12:41;1.15;;;1.10;;
18336;SDS011;9294;51.106;7.028;2023-02-28T07:15:09;0.95;;;0.95;;
18336;SDS011;9294;51.106;7.028;2023-02-28T07:17:37;1.38;;;1.25;;
18336;SDS011;9294;51.106;7.028;2023-02-28T07:20:04;1.20;;;1.13;;
18336;SDS011;9294;51.106;7.028;2023-02-28T07:22:31;1.05;;;1.05;;
18336;SDS011;9294;51.106;7.028;2023-02-28T07:24:58;1.85;;;1.20;;
18336;SDS011;9294;51.106;7.028;2023-02-28T07:27:24;2.53;;;1.10;;
18336;SDS011;9294;51.106;7.028;2023-02-28T07:29:51;2.25;;;1.40;;
18336;SDS011;9294;51.106;7.028;2023-02-28T07:32:18;1.25;;;1.15;;
18336;SDS011;9294;51.106;7.028;2023-02-28T07:34:46;4.15;;;1.40;;
18336;SDS011;9294;51.106;7.028;2023-02-28T07:37:13;5.68;;;1.52;;
18336;SDS011;9294;51.106;7.028;2023-02-28T07:39:40;3.58;;;1.30;;
18336;SDS011;9294;51.106;7.028;2023-02-28T07:42:07;6.00;;;1.25;;
18336;SDS011;9294;51.106;7.028;2023-02-28T07:44:36;4.38;;;1.17;;
18336;SDS011;9294;51.106;7.028;2023-02-28T07:47:05;2.53;;;1.33;;
18336;SDS011;9294;51.106;7.028;2023-02-28T07:49:33;2.90;;;1.20;;
18336;SDS011;9294;51.106;7.028;2023-02-28T07:52:01;1.73;;;1.30;;
18336;SDS011;9294;51.106;7.028;2023-02-28T07:54:28;2.40;;;1.17;;
18336;SDS011;9294;51.106;7.028;2023-02-28T07:56:55;1.90;;;1.80;;
18336;SDS011;9294;51.106;7.028;2023-02-28T07:59:22;1.27;;;1.27;;
18336;SDS011;9294;51.106;7.028;2023-02-28T08:01:48;1.15;;;1.15;;
18336;SDS011;9294;51.106;7.028;2023-02-28T08:04:16;1.13;;;1.10;;
18336;SDS011;9294;51.106;7.028;2023-02-28T08:06:42;3.45;;;1.50;;
18336;SDS011;9294;51.106;7.028;2023-02-28T08:09:11;1.33;;;1.20;;
18336;SDS011;9294;51.106;7.028;2023-02-28T08:11:37;3.22;;;1.23;;
18336;SDS011;9294;51.106;7.028;2023-02-28T08:14:04;2.17;;;1.35;;
18336;SDS011;9294;51.106;7.028;2023-02-28T08:16:30;1.88;;;1.55;;
18336;SDS011;9294;51.106;7.028;2023-02-28T08:18:57;1.40;;;1.23;;
18336;SDS011;9294;51.106;7.028;2023-02-28T08:21:24;1.17;;;1.08;;
18336;SDS011;9294;51.106;7.028;2023-02-28T08:23:51;1.13;;;1.10;;
18336;SDS011;9294;51.106;7.028;2023-02-28T08:26:19;2.72;;;1.55;;
18336;SDS011;9294;51.106;7.028;2023-02-28T08:28:46;1.30;;;1.20;;
18336;SDS011;9294;51.106;7.028;2023-02-28T08:31:13;1.38;;;1.10;;
18336;SDS011;9294;51.106;7.028;2023-02-28T08:33:42;1.55;;;1.30;;
18336;SDS011;9294;51.106;7.028;2023-02-28T08:36:10;1.30;;;1.30;;
18336;SDS011;9294;51.106;7.028;2023-02-28T08:38:37;1.20;;;1.20;;
18336;SDS011;9294;51.106;7.028;2023-02-28T08:41:06;1.60;;;1.50;;
18336;SDS011;9294;51.106;7.028;2023-02-28T08:43:36;1.00;;;1.00;;
18336;SDS011;9294;51.106;7.028;2023-02-28T08:46:04;1.33;;;1.23;;
18336;SDS011;9294;51.106;7.028;2023-02-28T08:48:31;1.67;;;1.58;;
18336;SDS011;9294;51.106;7.028;2023-02-28T08:51:00;1.30;;;1.30;;
18336;SDS011;9294;51.106;7.028;2023-02-28T08:53:28;1.40;;;1.30;;
18336;SDS011;9294;51.106;7.028;2023-02-28T08:55:56;1.10;;;1.10;;
18336;SDS011;9294;51.106;7.028;2023-02-28T08:58:24;1.15;;;1.15;;
18336;SDS011;9294;51.106;7.028;2023-02-28T09:00:52;1.10;;;1.10;;
18336;SDS011;9294;51.106;7.028;2023-02-28T09:03:19;1.98;;;1.63;;
18336;SDS011;9294;51.106;7.028;2023-02-28T09:05:53;1.60;;;1.50;;
18336;SDS011;9294;51.106;7.028;2023-02-28T09:08:21;1.67;;;1.58;;
18336;SDS011;9294;51.106;7.028;2023-02-28T09:10:48;1.35;;;1.33;;
18336;SDS011;9294;51.106;7.028;2023-02-28T09:13:16;1.65;;;1.52;;
18336;SDS011;9294;51.106;7.028;2023-02-28T09:15:42;2.65;;;1.80;;
18336;SDS011;9294;51.106;7.028;2023-02-28T09:18:10;1.50;;;1.40;;
18336;SDS011;9294;51.106;7.028;2023-02-28T09:20:38;3.60;;;1.77;;
18336;SDS011;9294;51.106;7.028;2023-02-28T09:23:05;2.15;;;1.55;;
18336;SDS011;9294;51.106;7.028;2023-02-28T09:25:32;1.60;;;1.50;;
18336;SDS011;9294;51.106;7.028;2023-02-28T09:27:59;2.22;;;1.80;;
18336;SDS011;9294;51.106;7.028;2023-02-28T09:30:26;2.47;;;1.77;;
18336;SDS011;9294;51.106;7.028;2023-02-28T09:32:53;3.10;;;1.45;;
18336;SDS011;9294;51.106;7.028;2023-02-28T09:35:22;2.47;;;1.60;;
18336;SDS011;9294;51.106;7.028;2023-02-28T09:37:51;1.95;;;1.55;;
18336;SDS011;9294;51.106;7.028;2023-02-28T09:40:18;1.85;;;1.35;;
18336;SDS011;9294;51.106;7.028;2023-02-28T09:42:48;1.60;;;1.50;;
18336;SDS011;9294;51.106;7.028;2023-02-28T09:45:19;3.72;;;1.80;;
18336;SDS011;9294;51.106;7.028;2023-02-28T09:47:50;1.67;;;1.58;;
18336;SDS011;9294;51.106;7.028;2023-02-28T09:50:26;2.85;;;1.35;;
18336;SDS011;9294;51.106;7.028;2023-02-28T09:52:58;2.67;;;1.60;;
18336;SDS011;9294;51.106;7.028;2023-02-28T09:55:28;1.60;;;1.42;;
18336;SDS011;9294;51.106;7.028;2023-02-28T09:57:59;1.92;;;1.58;;
18336;SDS011;9294;51.106;7.028;2023-02-28T10:00:28;1.40;;;1.30;;
18336;SDS011;9294;51.106;7.028;2023-02-28T10:03:08;1.92;;;1.52;;
18336;SDS011;9294;51.106;7.028;2023-02-28T10:05:51;1.60;;;1.30;;
18336;SDS011;9294;51.106;7.028;2023-02-28T10:08:21;1.40;;;1.30;;
18336;SDS011;9294;51.106;7.028;2023-02-28T10:10:53;1.13;;;1.13;;
18336;SDS011;9294;51.106;7.028;2023-02-28T10:13:25;1.67;;;1.58;;
18336;SDS011;9294;51.106;7.028;2023-02-28T10:15:58;2.17;;;1.65;;
18336;SDS011;9294;51.106;7.028;2023-02-28T10:18:30;2.55;;;1.40;;
18336;SDS011;9294;51.106;7.028;2023-02-28T10:21:08;4.95;;;1.33;;
18336;SDS011;9294;51.106;7.028;2023-02-28T10:23:43;1.27;;;1.17;;
18336;SDS011;9294;51.106;7.028;2023-02-28T10:26:13;3.60;;;1.70;;
18336;SDS011;9294;51.106;7.028;2023-02-28T10:28:41;2.78;;;1.50;;
18336;SDS011;9294;51.106;7.028;2023-02-28T10:31:09;7.75;;;1.63;;
18336;SDS011;9294;51.106;7.028;2023-02-28T10:33:40;2.50;;;1.02;;
18336;SDS011;9294;51.106;7.028;2023-02-28T10:36:10;3.83;;;1.48;;
18336;SDS011;9294;51.106;7.028;2023-02-28T10:38:42;3.67;;;1.52;;
18336;SDS011;9294;51.106;7.028;2023-02-28T10:41:10;1.90;;;1.30;;
18336;SDS011;9294;51.106;7.028;2023-02-28T10:43:39;2.58;;;1.50;;
18336;SDS011;9294;51.106;7.028;2023-02-28T10:46:10;2.67;;;1.98;;
18336;SDS011;9294;51.106;7.028;2023-02-28T10:48:40;2.63;;;2.08;;
18336;SDS011;9294;51.106;7.028;2023-02-28T10:51:11;7.28;;;2.50;;
18336;SDS011;9294;51.106;7.028;2023-02-28T10:53:45;4.18;;;3.78;;
18336;SDS011;9294;51.106;7.028;2023-02-28T10:56:15;8.35;;;5.47;;
18336;SDS011;9294;51.106;7.028;2023-02-28T10:58:47;10.05;;;7.40;;
18336;SDS011;9294;51.106;7.028;2023-02-28T11:01:18;15.02;;;10.48;;
18336;SDS011;9294;51.106;7.028;2023-02-28T11:03:45;23.88;;;13.30;;
18336;SDS011;9294;51.106;7.028;2023-02-28T11:06:15;19.65;;;12.77;;
18336;SDS011;9294;51.106;7.028;2023-02-28T11:08:45;20.95;;;14.30;;
18336;SDS011;9294;51.106;7.028;2023-02-28T11:11:15;25.33;;;14.82;;
18336;SDS011;9294;51.106;7.028;2023-02-28T11:13:43;23.33;;;15.68;;
18336;SDS011;9294;51.106;7.028;2023-02-28T11:16:12;23.77;;;15.73;;
18336;SDS011;9294;51.106;7.028;2023-02-28T11:18:41;27.40;;;16.05;;
18336;SDS011;9294;51.106;7.028;2023-02-28T11:21:19;23.10;;;15.43;;
18336;SDS011;9294;51.106;7.028;2023-02-28T11:23:49;21.13;;;14.75;;
18336;SDS011;9294;51.106;7.028;2023-02-28T11:29:11;20.67;;;13.38;;
18336;SDS011;9294;51.106;7.028;2023-02-28T11:31:44;19.38;;;11.95;;
18336;SDS011;9294;51.106;7.028;2023-02-28T11:34:28;20.00;;;11.98;;
18336;SDS011;9294;51.106;7.028;2023-02-28T11:36:57;17.92;;;11.55;;
18336;SDS011;9294;51.106;7.028;2023-02-28T11:39:25;15.98;;;10.98;;
18336;SDS011;9294;51.106;7.028;2023-02-28T11:42:04;14.75;;;10.45;;
18336;SDS011;9294;51.106;7.028;2023-02-28T11:44:42;16.50;;;10.35;;
18336;SDS011;9294;51.106;7.028;2023-02-28T11:47:25;12.35;;;9.18;;
18336;SDS011;9294;51.106;7.028;2023-02-28T11:50:03;12.15;;;9.10;;
18336;SDS011;9294;51.106;7.028;2023-02-28T11:52:45;10.85;;;8.48;;
18336;SDS011;9294;51.106;7.028;2023-02-28T11:55:17;10.60;;;7.57;;
18336;SDS011;9294;51.106;7.028;2023-02-28T11:57:55;9.20;;;6.90;;
18336;SDS011;9294;51.106;7.028;2023-02-28T12:00:38;9.60;;;7.57;;
18336;SDS011;9294;51.106;7.028;2023-02-28T12:03:17;9.15;;;6.97;;
18336;SDS011;9294;51.106;7.028;2023-02-28T12:05:54;10.48;;;6.30;;
18336;SDS011;9294;51.106;7.028;2023-02-28T12:08:33;9.18;;;6.07;;
18336;SDS011;9294;51.106;7.028;2023-02-28T12:11:11;8.35;;;5.78;;
18336;SDS011;9294;51.106;7.028;2023-02-28T12:13:46;8.35;;;5.82;;
18336;SDS011;9294;51.106;7.028;2023-02-28T12:16:22;10.20;;;5.70;;
18336;SDS011;9294;51.106;7.028;2023-02-28T12:19:13;7.10;;;5.07;;
18336;SDS011;9294;51.106;7.028;2023-02-28T12:21:48;7.05;;;5.30;;
18336;SDS011;9294;51.106;7.028;2023-02-28T12:24:31;7.78;;;5.32;;
18336;SDS011;9294;51.106;7.028;2023-02-28T12:27:09;8.32;;;4.95;;
18336;SDS011;9294;51.106;7.028;2023-02-28T12:29:40;7.55;;;5.82;;
18336;SDS011;9294;51.106;7.028;2023-02-28T12:32:13;10.52;;;5.15;;
18336;SDS011;9294;51.106;7.028;2023-02-28T12:34:46;9.23;;;4.78;;
18336;SDS011;9294;51.106;7.028;2023-02-28T12:37:17;8.43;;;4.78;;
18336;SDS011;9294;51.106;7.028;2023-02-28T12:39:50;5.90;;;4.85;;
18336;SDS011;9294;51.106;7.028;2023-02-28T12:42:23;6.35;;;4.70;;
18336;SDS011;9294;51.106;7.028;2023-02-28T12:44:54;5.30;;;4.00;;
18336;SDS011;9294;51.106;7.028;2023-02-28T12:47:25;6.68;;;4.53;;
18336;SDS011;9294;51.106;7.028;2023-02-28T12:49:52;5.57;;;4.25;;
18336;SDS011;9294;51.106;7.028;2023-02-28T12:52:23;5.78;;;3.88;;
18336;SDS011;9294;51.106;7.028;2023-02-28T12:55:04;5.13;;;4.03;;
18336;SDS011;9294;51.106;7.028;2023-02-28T12:57:40;4.63;;;3.75;;
18336;SDS011;9294;51.106;7.028;2023-02-28T13:00:13;8.77;;;4.28;;
18336;SDS011;9294;51.106;7.028;2023-02-28T13:02:50;6.50;;;3.95;;
18336;SDS011;9294;51.106;7.028;2023-02-28T13:05:56;4.18;;;3.55;;
18336;SDS011;9294;51.106;7.028;2023-02-28T13:09:01;3.72;;;3.03;;
18336;SDS011;9294;51.106;7.028;2023-02-28T13:11:39;6.18;;;3.58;;
18336;SDS011;9294;51.106;7.028;2023-02-28T13:14:16;3.72;;;3.13;;
18336;SDS011;9294;51.106;7.028;2023-02-28T13:16:58;5.05;;;3.53;;
18336;SDS011;9294;51.106;7.028;2023-02-28T13:19:28;5.07;;;3.28;;
18336;SDS011;9294;51.106;7.028;2023-02-28T13:21:56;5.13;;;3.20;;
18336;SDS011;9294;51.106;7.028;2023-02-28T13:24:38;3.92;;;3.35;;
18336;SDS011;9294;51.106;7.028;2023-02-28T13:27:20;3.35;;;3.05;;
18336;SDS011;9294;51.106;7.028;2023-02-28T13:29:50;3.70;;;3.33;;
18336;SDS011;9294;51.106;7.028;2023-02-28T13:35:12;3.08;;;2.78;;
18336;SDS011;9294;51.106;7.028;2023-02-28T13:38:24;3.35;;;3.13;;
18336;SDS011;9294;51.106;7.028;2023-02-28T13:44:07;2.78;;;2.58;;
18336;SDS011;9294;51.106;7.028;2023-02-28T13:46:36;7.53;;;2.85;;
18336;SDS011;9294;51.106;7.028;2023-02-28T13:49:31;3.22;;;2.90;;
18336;SDS011;9294;51.106;7.028;2023-02-28T13:52:02;3.15;;;2.75;;
18336;SDS011;9294;51.106;7.028;2023-02-28T13:54:40;3.72;;;3.42;;
18336;SDS011;9294;51.106;7.028;2023-02-28T13:57:21;4.30;;;2.78;;
18336;SDS011;9294;51.106;7.028;2023-02-28T13:59:59;5.75;;;2.65;;
18336;SDS011;9294;51.106;7.028;2023-02-28T14:02:50;3.63;;;2.75;;
18336;SDS011;9294;51.106;7.028;2023-02-28T14:05:29;7.60;;;2.78;;
18336;SDS011;9294;51.106;7.028;2023-02-28T14:07:59;7.25;;;3.08;;
18336;SDS011;9294;51.106;7.028;2023-02-28T14:10:34;3.17;;;2.97;;
18336;SDS011;9294;51.106;7.028;2023-02-28T14:13:12;3.20;;;2.17;;
18336;SDS011;9294;51.106;7.028;2023-02-28T14:16:03;2.38;;;2.15;;
18336;SDS011;9294;51.106;7.028;2023-02-28T14:18:32;5.65;;;2.65;;
18336;SDS011;9294;51.106;7.028;2023-02-28T14:21:02;4.57;;;2.25;;
18336;SDS011;9294;51.106;7.028;2023-02-28T14:23:42;2.47;;;2.30;;
18336;SDS011;9294;51.106;7.028;2023-02-28T14:26:23;3.28;;;2.40;;
18336;SDS011;9294;51.106;7.028;2023-02-28T14:29:16;4.50;;;2.70;;
18336;SDS011;9294;51.106;7.028;2023-02-28T14:32:13;2.55;;;2.35;;
18336;SDS011;9294;51.106;7.028;2023-02-28T14:34:50;2.42;;;2.22;;
18336;SDS011;9294;51.106;7.028;2023-02-28T14:37:20;2.47;;;2.13;;
18336;SDS011;9294;51.106;7.028;2023-02-28T14:39:53;7.88;;;2.10;;
18336;SDS011;9294;51.106;7.028;2023-02-28T14:42:26;2.88;;;2.22;;
18336;SDS011;9294;51.106;7.028;2023-02-28T14:44:55;4.35;;;2.58;;
18336;SDS011;9294;51.106;7.028;2023-02-28T14:47:23;4.68;;;2.20;;
18336;SDS011;9294;51.106;7.028;2023-02-28T14:49:53;2.75;;;1.98;;
18336;SDS011;9294;51.106;7.028;2023-02-28T14:52:21;3.65;;;2.17;;
18336;SDS011;9294;51.106;7.028;2023-02-28T14:54:51;3.35;;;2.13;;
18336;SDS011;9294;51.106;7.028;2023-02-28T14:57:21;4.75;;;2.60;;
18336;SDS011;9294;51.106;7.028;2023-02-28T14:59:56;4.28;;;2.40;;
18336;SDS011;9294;51.106;7.028;2023-02-28T15:02:29;2.83;;;2.33;;
18336;SDS011;9294;51.106;7.028;2023-02-28T15:04:58;3.28;;;2.08;;
18336;SDS011;9294;51.106;7.028;2023-02-28T15:07:26;1.95;;;1.75;;
18336;SDS011;9294;51.106;7.028;2023-02-28T15:10:13;2.08;;;1.70;;
18336;SDS011;9294;51.106;7.028;2023-02-28T15:12:45;3.22;;;2.33;;
18336;SDS011;9294;51.106;7.028;2023-02-28T15:15:18;2.58;;;2.38;;
18336;SDS011;9294;51.106;7.028;2023-02-28T15:17:48;3.90;;;2.00;;
18336;SDS011;9294;51.106;7.028;2023-02-28T15:20:18;3.60;;;2.42;;
18336;SDS011;9294;51.106;7.028;2023-02-28T15:22:45;1.98;;;1.83;;
18336;SDS011;9294;51.106;7.028;2023-02-28T15:25:13;2.50;;;2.30;;
18336;SDS011;9294;51.106;7.028;2023-02-28T15:27:45;4.82;;;1.75;;
18336;SDS011;9294;51.106;7.028;2023-02-28T15:30:15;2.42;;;2.00;;
18336;SDS011;9294;51.106;7.028;2023-02-28T15:32:44;1.95;;;1.85;;
18336;SDS011;9294;51.106;7.028;2023-02-28T15:35:20;2.03;;;1.92;;